• Join FlightAware (Why Join?)
  • Login
  • US Flag 
02:53PM EDT


 

Airport Tracker/Info


-or-


 

Live Flight TrackerFlight Track Log ✈ RPA3275 ✈ 14-Jul-2013 ✈ KALB - KPHL

Flight Track Log - Related Links

Times and Time Zones

All times are in EDT time to prevent confusion due to time zone crossing. See the RPA3275 flight status page for this flight to view local times or setup timezone preferences in your user account.

Time Position Orientation Groundspeed Altitude Reporting Facility
EDT Latitude Longitude Course Direction KTS MPH feet Rate Location/Type
07:14AM 42.7653 -73.8061 223° Southwest 145 167 1,200  Level Boston Center
07:15AM 42.7897 -73.8603 302° West 211 243 3,500 2,100 Climbing Boston Center
07:16AM 42.7333 -74.1972 270° West  Level FlightAware Approximate
07:16AM 42.7822 -73.9478 263° West 231 266 6,000  Level Boston Center
07:17AM 42.7211 -74.3245 236° Southwest  Level FlightAware Approximate
07:17AM 42.7725 -74.0439 262° West 249 287 9,100  Level Boston Center
07:18AM 42.6478 -74.4109 220° Southwest  Level FlightAware Approximate
07:18AM 42.7606 -74.1539 262° West 262 302 11,100  Level Boston Center
07:19AM 42.5733 -74.4959 223° Southwest  Level FlightAware Approximate
07:19AM 42.7483 -74.2694 262° West 308 354 13,400  Level Boston Center
07:20AM 42.6967 -74.3667 234° Southwest 307 353 15,200 1,980 Climbing Boston Center
07:21AM 42.6244 -74.4464 219° Southwest 330 380 17,400 1,380 Climbing Boston Center
07:22AM 42.5500 -74.5314 220° Southwest 345 397 18,000 300 Climbing Boston Center
07:23AM 42.4775 -74.6133 220° Southwest 345 397 18,000  Level Boston Center
07:24AM 42.4072 -74.6953 221° Southwest 345 397 18,000  Level Boston Center
07:25AM 42.2911 -74.8328 221° Southwest 327 376 18,000  Level New York Center
07:26AM 42.2175 -74.9150 220° Southwest 333 383 18,000  Level New York Center
07:27AM 42.1461 -74.9889 218° Southwest 345 397 18,000  Level New York Center
07:28AM 42.0561 -75.0611 211° Southwest 351 404 18,000  Level New York Center
07:29AM 41.9767 -75.1286 212° Southwest 351 404 18,000  Level New York Center
07:30AM 41.8931 -75.1928 210° Southwest 351 404 18,000 -540 Level New York Center
07:31AM 41.8519 -75.2903 241° Southwest 332 382 17,000 -1,800 Descending New York Center
07:32AM 41.8283 -75.4139 256° West 332 382 14,500 -2,580 Descending New York Center
07:33AM 41.7983 -75.5453 253° West 338 389 12,000 -1,260 Descending New York Center
07:34AM 41.7233 -75.5928 205° Southwest 294 338 12,000  Level New York Center
07:35AM 41.6350 -75.6142 190° South 310 357 12,000  Level New York Center
07:36AM 41.5553 -75.6306 189° South 326 375 12,000  Level New York Center
07:37AM 41.4672 -75.6464 188° South 326 375 12,000  Level New York Center
07:38AM 41.3789 -75.6675 190° South 326 375 12,000 -480 Level New York Center
07:39AM 41.2928 -75.6861 189° South 326 375 11,100 -1,020 Descending New York Center
07:40AM 41.1986 -75.6903 182° South 320 368 10,000 -600 Descending New York Center
07:41AM 41.1133 -75.6897 180° South 310 357 10,000  Level New York Center
07:42AM 41.0364 -75.6867 178° South 310 357 10,000  Level New York Center
07:43AM 40.9417 -75.6606 168° South 310 357 10,000  Level New York Center
07:44AM 40.8578 -75.6217 161° South 315 362 10,000  Level New York Center
07:45AM 40.7739 -75.5828 161° South 322 371 10,000  Level New York Center
07:46AM 40.7006 -75.5450 159° South 317 365 10,000  Level New York Center
07:47AM 40.6164 -75.5089 162° South 317 365 10,000  Level New York Center
07:48AM 40.5347 -75.4706 160° South 317 365 10,000  Level New York Center
07:49AM 40.4569 -75.4325 160° South 317 365 10,000 -600 Level New York Center
07:50AM 40.3836 -75.3922 157° South 301 346 8,800 -1,620 Descending New York Center
07:51AM 40.3042 -75.3458 156° South 280 322 6,900 -1,440 Descending New York Center
07:52AM 40.2347 -75.3061 156° South 275 316 6,000 -480 Descending New York Center
07:53AM 40.1672 -75.2717 159° South 275 316 6,000  Level New York Center
07:54AM 40.1042 -75.2350 156° South 256 295 6,000  Level New York Center
07:55AM 40.0531 -75.2047 156° South 239 275 6,000  Level New York Center
07:56AM 40.0308 -75.1300 111° Southeast 197 227 6,000 -780 Level New York Center
07:58AM 40.0167 -75.0500 103° East 191 220 4,400 -1,380 Descending Philadelphia TRACON
07:59AM 40.0000 -74.9833 108° East 179 206 3,200 -1,260 Descending Philadelphia TRACON
08:00AM 39.9500 -74.9833 180° South 163 188 2,100 -600 Descending Philadelphia TRACON
08:01AM 39.9167 -75.0167 217° Southwest 165 190 2,100  Level Philadelphia TRACON
08:02AM 39.9000 -75.0833 252° West 170 196 2,100  Level Philadelphia TRACON